Groton, Connecticut
Current Conditions -  °F | °C
As of 9:56 PM on Friday 28 Nov 2014 (Local Time) from KGON Reporting Station
Clear Clear  
Wind Chill: 16°   Ceiling: Unl
Heat Index: 27°   Visibility: 9mi
Dew Point: 15°   Wind: 13mph
Humidity: 61%   Direction: 310°NW
Pressure: 30.23"   Gusts: NA
Location:  41.35°N, 72.07°W
Report Text: KGON 290256Z 31011KT 9SM CLR M03/M09 A3023 RMK AO2 SLP237 T10281094 51013
Loading
Personal Weather Stations






























Interactive Weather Map New forecast layout! Learn more

10-Day Weather Forecast

Advertisements
Track Severe Weather on mobile